createdAt,value
2019-01-31T00:01:54.912Z,98614.52
2019-01-31T00:04:22.636Z,98612.45
2019-01-31T00:06:50.277Z,98618.28
2019-01-31T00:09:18.271Z,98623.48
2019-01-31T00:11:45.907Z,98618.28
2019-01-31T00:14:13.944Z,98624.36
2019-01-31T00:16:41.978Z,98620.23
2019-01-31T00:19:10.249Z,98623.89
2019-01-31T00:21:38.214Z,98625.52
2019-01-31T00:24:06.197Z,98622.81
2019-01-31T00:26:34.153Z,98629.92
2019-01-31T00:29:02.137Z,98627.25
2019-01-31T00:31:30.113Z,98630.59
2019-01-31T00:33:58.064Z,98629.72
2019-01-31T00:36:26.035Z,98621.42
2019-01-31T00:38:56.812Z,98625.03
2019-01-31T00:41:23.016Z,98631.31
2019-01-31T00:43:50.968Z,98632.38
2019-01-31T00:46:18.935Z,98635.75
2019-01-31T00:48:46.568Z,98640.36
2019-01-31T00:51:14.480Z,98636.80
2019-01-31T00:53:42.443Z,98636.20
2019-01-31T00:56:10.407Z,98637.70
2019-01-31T00:58:38.485Z,98635.95
2019-01-31T01:01:06.457Z,98639.41
2019-01-31T01:03:36.813Z,98640.36
2019-01-31T01:06:04.131Z,98637.82
2019-01-31T01:08:31.856Z,98641.63
2019-01-31T01:10:59.760Z,98638.53
2019-01-31T01:13:27.739Z,98638.47
2019-01-31T01:15:55.717Z,98636.42
2019-01-31T01:18:23.342Z,98638.22
2019-01-31T01:20:50.989Z,98646.64
2019-01-31T01:23:18.895Z,98640.55
2019-01-31T01:25:46.530Z,98652.12
2019-01-31T01:28:14.522Z,98655.33
2019-01-31T01:30:42.490Z,98653.14
2019-01-31T01:33:10.587Z,98655.33
2019-01-31T01:35:38.538Z,98654.81
2019-01-31T01:38:06.196Z,98659.49
2019-01-31T01:40:33.842Z,98662.24
2019-01-31T01:43:01.831Z,98658.34
2019-01-31T01:45:29.473Z,98662.24
2019-01-31T01:47:57.468Z,98659.49
2019-01-31T01:50:25.436Z,98657.43
2019-01-31T01:52:53.402Z,98658.28
2019-01-31T01:55:21.061Z,98656.14
2019-01-31T01:57:48.698Z,98651.45
2019-01-31T02:00:16.700Z,98661.70
2019-01-31T02:02:44.798Z,98665.16
2019-01-31T02:05:12.759Z,98665.91
2019-01-31T02:07:40.731Z,98667.05
2019-01-31T02:10:08.678Z,98663.02
2019-01-31T02:12:36.647Z,98667.52
2019-01-31T02:15:04.621Z,98662.30
2019-01-31T02:17:32.293Z,98661.44
2019-01-31T02:20:00.361Z,98658.77
2019-01-31T02:22:27.967Z,98664.10
2019-01-31T02:24:55.875Z,98663.23
2019-01-31T02:27:23.860Z,98658.94
2019-01-31T02:29:51.828Z,98657.54
2019-01-31T02:32:19.474Z,98654.13
2019-01-31T02:34:47.361Z,98650.38
2019-01-31T02:37:15.334Z,98649.27
2019-01-31T02:39:43.559Z,98656.89
2019-01-31T02:42:11.243Z,98650.66
2019-01-31T02:44:39.392Z,98642.38
2019-01-31T02:47:07.406Z,98635.81
2019-01-31T02:49:35.371Z,98642.77
2019-01-31T02:52:03.345Z,98647.39
2019-01-31T02:54:30.989Z,98645.58
2019-01-31T02:56:59.008Z,98650.19
2019-01-31T02:59:26.944Z,98651.45
2019-01-31T03:01:54.912Z,98646.05
2019-01-31T03:04:22.885Z,98642.69
2019-01-31T03:06:50.849Z,98636.89
2019-01-31T03:09:18.827Z,98643.64
2019-01-31T03:11:46.796Z,98639.63
2019-01-31T03:14:14.449Z,98641.38
2019-01-31T03:16:42.081Z,98643.10
2019-01-31T03:19:10.006Z,98647.39
2019-01-31T03:21:38.261Z,98646.04
2019-01-31T03:24:06.251Z,98643.38
2019-01-31T03:26:34.204Z,98644.36
2019-01-31T03:29:01.865Z,98655.92
2019-01-31T03:31:30.088Z,98649.57
2019-01-31T03:33:58.219Z,98647.48
2019-01-31T03:36:25.874Z,98652.17
2019-01-31T03:38:53.851Z,98648.80
2019-01-31T03:41:21.506Z,98657.74
2019-01-31T03:43:49.479Z,98657.17
2019-01-31T03:46:17.134Z,98656.30
2019-01-31T03:48:45.120Z,98666.14
2019-01-31T03:51:12.773Z,98665.53
2019-01-31T03:53:40.421Z,98664.88
2019-01-31T03:56:08.420Z,98665.05
2019-01-31T03:58:36.081Z,98674.16
2019-01-31T04:01:03.825Z,98667.81
2019-01-31T04:03:32.592Z,98666.89
2019-01-31T04:06:00.338Z,98668.61
2019-01-31T04:08:28.257Z,98665.45
2019-01-31T04:10:55.914Z,98669.44
2019-01-31T04:13:23.543Z,98678.10
2019-01-31T04:15:51.574Z,98679.03
2019-01-31T04:18:19.236Z,98674.82
2019-01-31T04:20:46.885Z,98675.08
2019-01-31T04:23:14.841Z,98681.96
2019-01-31T04:25:42.487Z,98679.77
2019-01-31T04:28:10.489Z,98681.83
2019-01-31T04:30:38.447Z,98677.36
2019-01-31T04:33:06.092Z,98683.58
2019-01-31T04:35:34.093Z,98677.44
2019-01-31T04:38:02.043Z,98675.25
2019-01-31T04:40:31.695Z,98670.78
2019-01-31T04:42:59.943Z,98666.36
2019-01-31T04:45:28.022Z,98668.25
2019-01-31T04:47:56.546Z,98664.36
2019-01-31T04:50:24.285Z,98662.83
2019-01-31T04:52:52.217Z,98669.39
2019-01-31T04:55:19.939Z,98665.23
2019-01-31T04:57:47.945Z,98662.11
2019-01-31T05:00:15.940Z,98663.47
2019-01-31T05:02:43.625Z,98665.19
2019-01-31T05:05:11.547Z,98660.02
2019-01-31T05:07:39.519Z,98669.21
2019-01-31T05:10:07.492Z,98672.77
2019-01-31T05:12:35.455Z,98674.63
2019-01-31T05:15:03.086Z,98672.80
2019-01-31T05:17:30.992Z,98668.06
2019-01-31T05:19:58.620Z,98673.40
2019-01-31T05:22:26.627Z,98673.33
2019-01-31T05:24:54.330Z,98677.00
2019-01-31T05:27:21.972Z,98678.35
2019-01-31T05:29:49.916Z,98676.69
2019-01-31T05:32:17.550Z,98683.96
2019-01-31T05:34:45.458Z,98683.17
2019-01-31T05:37:13.084Z,98683.56
2019-01-31T05:39:40.990Z,98685.58
2019-01-31T05:42:08.941Z,98689.72
2019-01-31T05:44:36.574Z,98689.55
2019-01-31T05:47:04.212Z,98700.94
2019-01-31T05:49:31.844Z,98701.67
2019-01-31T05:51:59.862Z,98702.41
2019-01-31T05:54:27.436Z,98708.50
2019-01-31T05:56:55.071Z,98710.50
2019-01-31T05:59:22.995Z,98705.26
2019-01-31T06:01:50.962Z,98709.55
2019-01-31T06:04:18.935Z,98710.42
2019-01-31T06:06:46.585Z,98712.39
2019-01-31T06:09:14.206Z,98709.33
2019-01-31T06:11:42.131Z,98707.14
2019-01-31T06:14:09.770Z,98706.67
2019-01-31T06:16:37.755Z,98710.95
2019-01-31T06:19:05.743Z,98713.15
2019-01-31T06:21:33.376Z,98705.83
2019-01-31T06:24:01.354Z,98712.25
2019-01-31T06:26:28.984Z,98708.13
2019-01-31T06:28:56.883Z,98716.77
2019-01-31T06:31:24.853Z,98715.24
2019-01-31T06:33:52.826Z,98718.80
2019-01-31T06:36:20.795Z,98726.44
2019-01-31T06:38:48.766Z,98719.22
2019-01-31T06:41:18.782Z,98723.92
2019-01-31T06:43:45.812Z,98728.27
2019-01-31T06:46:13.692Z,98721.39
2019-01-31T06:48:41.664Z,98726.38
2019-01-31T06:51:09.354Z,98721.78
2019-01-31T06:53:37.298Z,98728.92
2019-01-31T06:56:04.930Z,98727.11
2019-01-31T06:58:32.571Z,98731.45
2019-01-31T07:01:00.487Z,98735.99
2019-01-31T07:03:28.117Z,98734.35
2019-01-31T07:05:56.018Z,98731.81
2019-01-31T07:08:23.986Z,98740.25
2019-01-31T07:10:51.957Z,98742.39
2019-01-31T07:13:19.967Z,98735.60
2019-01-31T07:15:47.895Z,98736.22
2019-01-31T07:18:15.862Z,98744.28
2019-01-31T07:20:43.483Z,98749.84
2019-01-31T07:23:11.407Z,98744.59
2019-01-31T07:25:39.025Z,98748.94
2019-01-31T07:28:06.666Z,98749.17
2019-01-31T07:30:34.589Z,98748.55
2019-01-31T07:33:02.574Z,98744.88
2019-01-31T07:35:30.202Z,98748.86
2019-01-31T07:37:57.836Z,98745.05
2019-01-31T07:40:25.749Z,98741.66
2019-01-31T07:42:54.639Z,98747.22
2019-01-31T07:45:22.279Z,98750.10
2019-01-31T07:47:50.277Z,98747.78
2019-01-31T07:50:17.916Z,98750.86
2019-01-31T07:52:45.800Z,98751.73
2019-01-31T07:55:13.431Z,98752.63
2019-01-31T07:57:41.055Z,98754.99
2019-01-31T08:00:08.993Z,98757.93
2019-01-31T08:02:36.967Z,98758.06
2019-01-31T08:05:04.930Z,98762.45
2019-01-31T08:07:32.900Z,98757.55
2019-01-31T08:10:00.870Z,98762.23
2019-01-31T08:12:28.511Z,98766.66
2019-01-31T08:14:56.404Z,98767.66
2019-01-31T08:17:24.373Z,98759.42
2019-01-31T08:19:52.343Z,98769.06
2019-01-31T08:22:20.023Z,98764.16
2019-01-31T08:24:47.971Z,98768.44
2019-01-31T08:27:15.942Z,98765.05
2019-01-31T08:29:43.913Z,98765.19
2019-01-31T08:32:11.530Z,98768.92
2019-01-31T08:34:39.460Z,98767.65
2019-01-31T08:37:07.089Z,98765.23
2019-01-31T08:39:34.717Z,98766.98
2019-01-31T08:42:03.824Z,98768.55
2019-01-31T08:44:31.654Z,98773.71
2019-01-31T08:46:59.271Z,98770.98
2019-01-31T08:49:26.898Z,98781.95
2019-01-31T08:51:54.818Z,98781.69
2019-01-31T08:54:22.459Z,98778.95
2019-01-31T08:56:50.362Z,98776.70
2019-01-31T08:59:18.330Z,98776.23
2019-01-31T09:01:46.287Z,98776.46
2019-01-31T09:04:14.258Z,98777.82
2019-01-31T09:06:41.882Z,98777.94
2019-01-31T09:09:09.507Z,98772.35
2019-01-31T09:11:37.139Z,98771.94
2019-01-31T09:14:05.418Z,98776.47
2019-01-31T09:16:33.388Z,98784.20
2019-01-31T09:19:04.053Z,98786.63
2019-01-31T09:21:30.753Z,98785.48
2019-01-31T09:23:58.384Z,98782.52
2019-01-31T09:26:26.289Z,98780.87
2019-01-31T09:28:54.257Z,98779.91
2019-01-31T09:31:22.233Z,98780.25
2019-01-31T09:33:49.874Z,98783.89
2019-01-31T09:36:17.504Z,98786.48
2019-01-31T09:38:45.439Z,98794.29
2019-01-31T09:41:13.392Z,98800.62
2019-01-31T09:43:41.365Z,98795.53
2019-01-31T09:46:08.990Z,98798.77
2019-01-31T09:48:36.891Z,98790.13
2019-01-31T09:51:04.861Z,98791.05
2019-01-31T09:53:32.831Z,98785.73
2019-01-31T09:56:00.814Z,98786.05
2019-01-31T09:58:28.443Z,98787.59
2019-01-31T10:00:56.354Z,98788.63
2019-01-31T10:03:24.302Z,98780.61
2019-01-31T10:05:51.934Z,98776.84
2019-01-31T10:08:19.561Z,98778.56
2019-01-31T10:10:47.566Z,98781.08
2019-01-31T10:13:15.354Z,98775.20
2019-01-31T10:15:43.361Z,98776.58
2019-01-31T10:18:11.378Z,98769.36
2019-01-31T10:20:39.125Z,98773.02
2019-01-31T10:23:06.770Z,98765.94
2019-01-31T10:25:35.828Z,98765.41
2019-01-31T10:28:03.790Z,98768.11
2019-01-31T10:30:31.783Z,98763.52
2019-01-31T10:32:59.729Z,98759.53
2019-01-31T10:35:27.366Z,98753.36
2019-01-31T10:37:55.008Z,98764.33
2019-01-31T10:40:22.931Z,98756.97
2019-01-31T10:42:52.362Z,98751.00
2019-01-31T10:45:22.800Z,98754.86
2019-01-31T10:47:49.340Z,98745.95
2019-01-31T10:50:16.976Z,98745.89
2019-01-31T10:52:44.923Z,98747.64
2019-01-31T10:55:12.561Z,98744.52
2019-01-31T10:57:40.559Z,98750.47
2019-01-31T11:00:14.442Z,98743.66
2019-01-31T11:02:42.340Z,98738.25
2019-01-31T11:05:10.317Z,98746.22
2019-01-31T11:07:38.267Z,98747.23
2019-01-31T11:10:06.258Z,98744.08
2019-01-31T11:12:34.205Z,98743.11
2019-01-31T11:15:01.903Z,98746.14
2019-01-31T11:17:29.525Z,98743.40
2019-01-31T11:19:57.520Z,98744.92
2019-01-31T11:22:25.582Z,98743.12
2019-01-31T11:24:53.214Z,98737.85
2019-01-31T11:27:21.103Z,98740.80
2019-01-31T11:29:48.732Z,98739.31
2019-01-31T11:32:16.627Z,98737.49
2019-01-31T11:34:44.622Z,98733.22
2019-01-31T11:37:12.300Z,98738.36
2019-01-31T11:39:40.242Z,98734.55
2019-01-31T11:42:07.859Z,98727.94
2019-01-31T11:44:37.962Z,98730.44
2019-01-31T11:47:05.091Z,98717.44
2019-01-31T11:49:33.035Z,98716.48
2019-01-31T11:52:01.022Z,98719.77
2019-01-31T11:54:28.650Z,98718.28
2019-01-31T11:57:05.328Z,98717.47
2019-01-31T11:59:25.936Z,98714.48
2019-01-31T12:01:53.905Z,98717.44
2019-01-31T12:04:21.526Z,98715.59
2019-01-31T12:06:49.152Z,98713.84
2019-01-31T12:09:17.096Z,98712.85
2019-01-31T12:11:45.069Z,98719.20
2019-01-31T12:14:13.033Z,98711.20
2019-01-31T12:16:41.008Z,98709.34
2019-01-31T12:19:08.868Z,98706.55
2019-01-31T12:21:36.507Z,98696.05
2019-01-31T12:24:04.403Z,98694.88
2019-01-31T12:26:32.034Z,98693.66
2019-01-31T12:28:59.927Z,98693.96
2019-01-31T12:31:27.554Z,98694.41
2019-01-31T12:33:55.462Z,98694.11
2019-01-31T12:36:23.086Z,98685.31
2019-01-31T12:38:50.701Z,98682.75
2019-01-31T12:41:18.653Z,98672.73
2019-01-31T12:43:46.624Z,98675.84
2019-01-31T12:46:14.596Z,98677.06
2019-01-31T12:48:42.566Z,98674.06
2019-01-31T12:51:10.539Z,98671.57
2019-01-31T12:53:38.505Z,98678.39
2019-01-31T12:56:06.472Z,98665.62
2019-01-31T12:58:34.117Z,98665.70
2019-01-31T13:01:02.001Z,98663.88
2019-01-31T13:03:29.971Z,98658.30
2019-01-31T13:05:57.602Z,98659.23
2019-01-31T13:08:25.225Z,98661.43
2019-01-31T13:10:52.840Z,98655.12
2019-01-31T13:13:20.727Z,98654.77
2019-01-31T13:15:48.586Z,98653.47
2019-01-31T13:18:16.208Z,98653.47
2019-01-31T13:20:43.834Z,98646.56
2019-01-31T13:23:11.444Z,98646.88
2019-01-31T13:25:39.063Z,98652.31
2019-01-31T13:28:06.677Z,98650.48
2019-01-31T13:30:34.301Z,98647.14
2019-01-31T13:33:02.232Z,98643.34
2019-01-31T13:35:30.199Z,98642.61
2019-01-31T13:37:58.169Z,98645.40
2019-01-31T13:40:26.143Z,98634.08
2019-01-31T13:42:54.099Z,98639.52
2019-01-31T13:45:21.712Z,98640.69
2019-01-31T13:47:49.747Z,98628.75
2019-01-31T13:50:17.709Z,98634.59
2019-01-31T13:52:45.681Z,98640.93
2019-01-31T13:55:13.297Z,98646.45
2019-01-31T13:57:40.925Z,98644.22
2019-01-31T14:00:08.981Z,98640.66
2019-01-31T14:02:36.614Z,98642.80
2019-01-31T14:05:04.504Z,98647.37
2019-01-31T14:07:32.125Z,98650.96
2019-01-31T14:10:00.035Z,98650.55
2019-01-31T14:12:28.002Z,98644.87
2019-01-31T14:14:55.624Z,98646.73
2019-01-31T14:17:23.550Z,98647.28
2019-01-31T14:19:51.500Z,98649.98
2019-01-31T14:22:19.469Z,98649.55
2019-01-31T14:24:47.437Z,98653.11
2019-01-31T14:27:15.070Z,98658.20
2019-01-31T14:29:42.701Z,98661.89
2019-01-31T14:32:10.637Z,98665.89
2019-01-31T14:34:38.600Z,98661.25
2019-01-31T14:37:06.568Z,98662.79
2019-01-31T14:39:34.535Z,98660.35
2019-01-31T14:42:02.203Z,98669.91
2019-01-31T14:44:30.069Z,98677.98
2019-01-31T14:46:57.713Z,98670.47
2019-01-31T14:49:25.379Z,98668.64
2019-01-31T14:51:53.365Z,98667.16
2019-01-31T14:54:21.236Z,98667.79
2019-01-31T14:56:48.866Z,98665.88
2019-01-31T14:59:16.763Z,98673.14
2019-01-31T15:01:44.727Z,98668.45
2019-01-31T15:04:12.701Z,98669.91
2019-01-31T15:06:40.334Z,98668.14
2019-01-31T15:09:08.782Z,98664.84
2019-01-31T15:11:36.813Z,98668.91
2019-01-31T15:14:04.437Z,98666.52
2019-01-31T15:16:32.341Z,98667.45
2019-01-31T15:19:00.314Z,98659.97
2019-01-31T15:21:27.940Z,98656.70
2019-01-31T15:23:55.576Z,98651.62
2019-01-31T15:26:23.506Z,98662.63
2019-01-31T15:28:51.476Z,98659.89
2019-01-31T15:31:19.439Z,98659.52
2019-01-31T15:33:47.071Z,98660.53
2019-01-31T15:36:14.981Z,98659.27
2019-01-31T15:38:42.620Z,98664.33
2019-01-31T15:41:10.233Z,98660.50
2019-01-31T15:43:38.168Z,98661.52
2019-01-31T15:46:05.810Z,98661.77
2019-01-31T15:48:33.694Z,98660.77
2019-01-31T15:51:01.669Z,98661.64
2019-01-31T15:53:29.637Z,98665.97
2019-01-31T15:55:57.258Z,98671.80
2019-01-31T15:58:25.167Z,98667.23
2019-01-31T16:00:52.799Z,98664.30
2019-01-31T16:03:20.819Z,98672.42
2019-01-31T16:05:48.436Z,98664.25
2019-01-31T16:08:16.633Z,98666.86
2019-01-31T16:10:44.298Z,98662.31
2019-01-31T16:13:12.177Z,98661.97
2019-01-31T16:15:39.802Z,98659.75
2019-01-31T16:18:07.694Z,98656.18
2019-01-31T16:20:35.676Z,98660.22
2019-01-31T16:23:03.300Z,98656.42
2019-01-31T16:25:31.201Z,98656.48
2019-01-31T16:27:58.839Z,98660.33
2019-01-31T16:30:26.644Z,98651.66
2019-01-31T16:32:54.590Z,98647.77
2019-01-31T16:35:22.561Z,98647.77
2019-01-31T16:37:50.531Z,98650.70
2019-01-31T16:40:18.164Z,98643.59
2019-01-31T16:42:46.058Z,98646.27
2019-01-31T16:45:14.031Z,98645.22
2019-01-31T16:47:41.746Z,98643.44
2019-01-31T16:50:09.381Z,98641.63
2019-01-31T16:52:37.026Z,98650.81
2019-01-31T16:55:04.985Z,98645.43
2019-01-31T16:57:33.268Z,98644.31
2019-01-31T17:00:01.334Z,98648.52
2019-01-31T17:02:28.959Z,98638.33
2019-01-31T17:04:56.580Z,98634.13
2019-01-31T17:07:24.525Z,98639.33
2019-01-31T17:09:52.153Z,98635.31
2019-01-31T17:12:19.785Z,98639.20
2019-01-31T17:14:47.410Z,98633.77
2019-01-31T17:17:15.045Z,98636.09
2019-01-31T17:19:42.673Z,98637.44
2019-01-31T17:22:10.300Z,98630.66
2019-01-31T17:24:38.269Z,98626.57
2019-01-31T17:27:06.239Z,98619.66
2019-01-31T17:29:34.205Z,98616.72
2019-01-31T17:32:02.176Z,98619.08
2019-01-31T17:34:30.146Z,98622.82
2019-01-31T17:36:58.115Z,98618.42
2019-01-31T17:39:25.749Z,98623.02
2019-01-31T17:41:53.664Z,98617.76
2019-01-31T17:44:21.290Z,98625.58
2019-01-31T17:46:48.907Z,98625.64
2019-01-31T17:49:16.552Z,98628.30
2019-01-31T17:51:44.503Z,98625.41
2019-01-31T17:54:12.139Z,98634.37
2019-01-31T17:56:40.024Z,98630.04
2019-01-31T17:59:07.997Z,98630.17
2019-01-31T18:01:36.173Z,98629.67
2019-01-31T18:04:04.143Z,98625.67
2019-01-31T18:06:32.117Z,98632.75
2019-01-31T18:08:59.750Z,98628.39
2019-01-31T18:11:27.369Z,98633.11
2019-01-31T18:13:55.301Z,98631.44
2019-01-31T18:16:23.267Z,98635.53
2019-01-31T18:18:50.918Z,98630.09
2019-01-31T18:21:18.801Z,98638.66
2019-01-31T18:23:46.519Z,98638.73
2019-01-31T18:26:14.443Z,98635.53
2019-01-31T18:28:42.068Z,98641.58
2019-01-31T18:31:09.982Z,98637.59
2019-01-31T18:33:37.935Z,98635.25
2019-01-31T18:36:05.904Z,98632.20
2019-01-31T18:38:33.890Z,98636.13
2019-01-31T18:41:01.516Z,98632.64
2019-01-31T18:43:29.143Z,98630.81
2019-01-31T18:45:57.071Z,98626.79
2019-01-31T18:48:25.041Z,98630.50
2019-01-31T18:50:53.016Z,98643.13
2019-01-31T18:53:20.636Z,98629.73
2019-01-31T18:55:48.274Z,98630.09
2019-01-31T18:58:15.904Z,98639.88
2019-01-31T19:00:43.957Z,98638.72
2019-01-31T19:03:11.932Z,98640.42
2019-01-31T19:05:39.571Z,98631.16
2019-01-31T19:08:09.062Z,98635.92
2019-01-31T19:10:43.212Z,98641.27
2019-01-31T19:13:06.182Z,98639.91
2019-01-31T19:15:34.159Z,98638.80
2019-01-31T19:18:06.192Z,98639.08
2019-01-31T19:20:31.726Z,98636.41
2019-01-31T19:22:59.349Z,98633.05
2019-01-31T19:25:27.349Z,98632.22
2019-01-31T19:27:54.974Z,98642.40
2019-01-31T19:30:22.871Z,98643.46
2019-01-31T19:32:50.743Z,98642.59
2019-01-31T19:35:18.710Z,98643.06
2019-01-31T19:37:46.700Z,98652.14
2019-01-31T19:40:14.652Z,98646.30
2019-01-31T19:42:42.273Z,98652.05
2019-01-31T19:45:10.183Z,98646.08
2019-01-31T19:47:38.166Z,98649.92
2019-01-31T19:50:06.118Z,98650.96
2019-01-31T19:52:34.087Z,98644.45
2019-01-31T19:55:02.061Z,98650.11
2019-01-31T19:57:30.019Z,98641.98
2019-01-31T19:59:57.999Z,98641.97
2019-01-31T20:02:25.966Z,98632.97
2019-01-31T20:04:53.938Z,98637.94
2019-01-31T20:07:21.568Z,98637.19
2019-01-31T20:09:49.271Z,98641.20
2019-01-31T20:12:16.888Z,98628.05
2019-01-31T20:14:44.532Z,98627.84
2019-01-31T20:17:12.157Z,98616.73
2019-01-31T20:19:40.114Z,98621.30
2019-01-31T20:22:08.088Z,98621.02
2019-01-31T20:24:36.058Z,98620.03
2019-01-31T20:27:04.330Z,98619.95
2019-01-31T20:29:32.301Z,98627.65
2019-01-31T20:31:59.934Z,98621.61
2019-01-31T20:34:27.831Z,98614.19
2019-01-31T20:36:55.795Z,98620.05
2019-01-31T20:39:23.775Z,98618.67
2019-01-31T20:41:54.199Z,98619.94
2019-01-31T20:44:21.357Z,98615.69
2019-01-31T20:46:49.317Z,98615.34
2019-01-31T20:49:16.934Z,98613.83
2019-01-31T20:51:44.641Z,98607.11
2019-01-31T20:54:12.346Z,98606.72
2019-01-31T20:56:40.274Z,98601.11
2019-01-31T20:59:07.892Z,98596.55
2019-01-31T21:01:35.799Z,98601.55
2019-01-31T21:04:03.423Z,98596.23
2019-01-31T21:06:41.169Z,98600.84
2019-01-31T21:09:00.672Z,98598.58
2019-01-31T21:11:28.605Z,98600.20
2019-01-31T21:13:56.581Z,98595.92
2019-01-31T21:16:24.213Z,98596.44
2019-01-31T21:18:51.831Z,98589.64
2019-01-31T21:21:19.457Z,98599.30
2019-01-31T21:23:47.425Z,98587.38
2019-01-31T21:26:15.418Z,98587.06
2019-01-31T21:28:43.375Z,98592.38
2019-01-31T21:31:11.344Z,98588.25
2019-01-31T21:33:39.308Z,98579.55
2019-01-31T21:36:07.274Z,98572.52
2019-01-31T21:38:34.898Z,98571.61
2019-01-31T21:41:02.537Z,98563.78
2019-01-31T21:43:30.161Z,98569.78
2019-01-31T21:45:57.786Z,98562.86
2019-01-31T21:48:25.406Z,98562.31
2019-01-31T21:50:53.371Z,98558.63
2019-01-31T21:53:21.330Z,98555.28
2019-01-31T21:55:49.023Z,98559.25
2019-01-31T21:58:16.851Z,98549.95
2019-01-31T22:00:44.558Z,98555.09
2019-01-31T22:03:12.501Z,98554.36
2019-01-31T22:05:40.451Z,98554.72
2019-01-31T22:08:08.076Z,98554.96
2019-01-31T22:10:35.679Z,98548.37
2019-01-31T22:13:03.386Z,98548.69
2019-01-31T22:15:31.313Z,98544.75
2019-01-31T22:18:00.395Z,98536.45
2019-01-31T22:20:28.678Z,98541.19
2019-01-31T22:22:56.302Z,98534.83
2019-01-31T22:25:23.933Z,98538.33
2019-01-31T22:27:51.568Z,98539.32
2019-01-31T22:30:19.535Z,98542.61
2019-01-31T22:32:47.509Z,98544.28
2019-01-31T22:35:15.476Z,98535.91
2019-01-31T22:37:43.751Z,98539.44
2019-01-31T22:40:11.717Z,98535.11
2019-01-31T22:42:39.688Z,98532.09
2019-01-31T22:45:07.677Z,98526.45
2019-01-31T22:47:35.628Z,98517.84
2019-01-31T22:50:03.492Z,98521.25
2019-01-31T22:52:31.142Z,98513.34
2019-01-31T22:54:59.041Z,98507.39
2019-01-31T22:57:26.675Z,98511.60
2019-01-31T22:59:54.297Z,98507.04
2019-01-31T23:02:22.236Z,98505.05
2019-01-31T23:04:49.862Z,98497.61
2019-01-31T23:07:17.491Z,98489.09
2019-01-31T23:09:45.526Z,98485.72
2019-01-31T23:12:13.488Z,98483.05
2019-01-31T23:14:41.449Z,98482.58
2019-01-31T23:17:09.075Z,98478.96
2019-01-31T23:19:36.700Z,98478.84
2019-01-31T23:22:04.644Z,98481.91
2019-01-31T23:24:32.530Z,98476.70
2019-01-31T23:27:00.494Z,98472.09
2019-01-31T23:29:28.173Z,98462.64
2019-01-31T23:31:55.811Z,98458.00
2019-01-31T23:34:23.430Z,98449.90
2019-01-31T23:36:51.338Z,98453.64
2019-01-31T23:39:19.330Z,98452.65
2019-01-31T23:41:47.275Z,98447.09
2019-01-31T23:44:15.247Z,98453.99
2019-01-31T23:46:43.212Z,98455.16
2019-01-31T23:49:10.838Z,98457.02
2019-01-31T23:51:38.743Z,98459.40
2019-01-31T23:54:06.372Z,98451.98
2019-01-31T23:56:34.276Z,98454.80
2019-01-31T23:59:02.250Z,98455.16
